sensor_id;sensor_type;location;lat;lon;timestamp;P1;durP1;ratioP1;P2;durP2;ratioP2
13592;SDS011;6867;50.998;4.250;2023-04-21T00:01:28;15.43;;;9.97;;
13592;SDS011;6867;50.998;4.250;2023-04-21T00:03:56;13.13;;;10.20;;
13592;SDS011;6867;50.998;4.250;2023-04-21T00:06:24;12.47;;;9.77;;
13592;SDS011;6867;50.998;4.250;2023-04-21T00:08:51;12.83;;;9.57;;
13592;SDS011;6867;50.998;4.250;2023-04-21T00:11:17;14.10;;;10.63;;
13592;SDS011;6867;50.998;4.250;2023-04-21T00:13:47;16.20;;;10.57;;
13592;SDS011;6867;50.998;4.250;2023-04-21T00:16:14;13.10;;;10.13;;
13592;SDS011;6867;50.998;4.250;2023-04-21T00:18:41;18.57;;;10.13;;
13592;SDS011;6867;50.998;4.250;2023-04-21T00:21:07;13.87;;;9.10;;
13592;SDS011;6867;50.998;4.250;2023-04-21T00:23:34;14.10;;;9.83;;
13592;SDS011;6867;50.998;4.250;2023-04-21T00:26:01;13.17;;;9.60;;
13592;SDS011;6867;50.998;4.250;2023-04-21T00:28:27;14.33;;;10.93;;
13592;SDS011;6867;50.998;4.250;2023-04-21T00:30:56;14.17;;;10.23;;
13592;SDS011;6867;50.998;4.250;2023-04-21T00:33:23;13.00;;;10.37;;
13592;SDS011;6867;50.998;4.250;2023-04-21T00:35:49;14.83;;;9.90;;
13592;SDS011;6867;50.998;4.250;2023-04-21T00:38:18;16.80;;;11.27;;
13592;SDS011;6867;50.998;4.250;2023-04-21T00:40:45;13.57;;;10.27;;
13592;SDS011;6867;50.998;4.250;2023-04-21T00:43:11;12.70;;;10.03;;
13592;SDS011;6867;50.998;4.250;2023-04-21T00:45:38;14.50;;;10.50;;
13592;SDS011;6867;50.998;4.250;2023-04-21T00:48:06;14.93;;;10.97;;
13592;SDS011;6867;50.998;4.250;2023-04-21T00:50:33;13.90;;;10.57;;
13592;SDS011;6867;50.998;4.250;2023-04-21T00:52:59;13.03;;;9.97;;
13592;SDS011;6867;50.998;4.250;2023-04-21T00:55:26;15.13;;;10.83;;
13592;SDS011;6867;50.998;4.250;2023-04-21T00:57:53;14.73;;;10.47;;
13592;SDS011;6867;50.998;4.250;2023-04-21T01:00:20;14.70;;;10.13;;
13592;SDS011;6867;50.998;4.250;2023-04-21T01:02:47;15.40;;;10.90;;
13592;SDS011;6867;50.998;4.250;2023-04-21T01:05:16;14.47;;;10.43;;
13592;SDS011;6867;50.998;4.250;2023-04-21T01:07:43;13.63;;;10.30;;
13592;SDS011;6867;50.998;4.250;2023-04-21T01:10:10;15.30;;;10.73;;
13592;SDS011;6867;50.998;4.250;2023-04-21T01:12:43;14.70;;;10.87;;
13592;SDS011;6867;50.998;4.250;2023-04-21T01:15:10;14.33;;;10.70;;
13592;SDS011;6867;50.998;4.250;2023-04-21T01:17:37;14.17;;;10.70;;
13592;SDS011;6867;50.998;4.250;2023-04-21T01:20:07;15.90;;;11.63;;
13592;SDS011;6867;50.998;4.250;2023-04-21T01:22:37;14.23;;;11.00;;
13592;SDS011;6867;50.998;4.250;2023-04-21T01:25:04;17.33;;;11.93;;
13592;SDS011;6867;50.998;4.250;2023-04-21T01:27:31;17.73;;;11.60;;
13592;SDS011;6867;50.998;4.250;2023-04-21T01:29:58;18.77;;;12.73;;
13592;SDS011;6867;50.998;4.250;2023-04-21T01:32:26;18.30;;;12.40;;
13592;SDS011;6867;50.998;4.250;2023-04-21T01:34:54;18.63;;;12.63;;
13592;SDS011;6867;50.998;4.250;2023-04-21T01:37:23;17.70;;;13.07;;
13592;SDS011;6867;50.998;4.250;2023-04-21T01:39:54;17.20;;;11.93;;
13592;SDS011;6867;50.998;4.250;2023-04-21T01:42:23;19.17;;;13.23;;
13592;SDS011;6867;50.998;4.250;2023-04-21T01:44:51;18.33;;;13.17;;
13592;SDS011;6867;50.998;4.250;2023-04-21T01:47:18;19.30;;;13.13;;
13592;SDS011;6867;50.998;4.250;2023-04-21T01:49:45;20.87;;;14.13;;
13592;SDS011;6867;50.998;4.250;2023-04-21T01:52:12;22.10;;;14.37;;
13592;SDS011;6867;50.998;4.250;2023-04-21T01:54:39;22.73;;;14.57;;
13592;SDS011;6867;50.998;4.250;2023-04-21T01:57:07;25.13;;;15.53;;
13592;SDS011;6867;50.998;4.250;2023-04-21T01:59:34;23.80;;;16.27;;
13592;SDS011;6867;50.998;4.250;2023-04-21T02:02:01;28.27;;;17.17;;
13592;SDS011;6867;50.998;4.250;2023-04-21T02:04:28;27.53;;;18.27;;
13592;SDS011;6867;50.998;4.250;2023-04-21T02:06:55;29.83;;;18.30;;
13592;SDS011;6867;50.998;4.250;2023-04-21T02:09:21;26.23;;;18.33;;
13592;SDS011;6867;50.998;4.250;2023-04-21T02:11:48;30.40;;;19.60;;
13592;SDS011;6867;50.998;4.250;2023-04-21T02:14:16;34.13;;;20.33;;
13592;SDS011;6867;50.998;4.250;2023-04-21T02:16:43;29.67;;;20.13;;
13592;SDS011;6867;50.998;4.250;2023-04-21T02:19:10;32.97;;;21.47;;
13592;SDS011;6867;50.998;4.250;2023-04-21T02:21:36;35.73;;;22.83;;
13592;SDS011;6867;50.998;4.250;2023-04-21T02:24:03;34.33;;;22.00;;
13592;SDS011;6867;50.998;4.250;2023-04-21T02:26:30;36.30;;;21.93;;
13592;SDS011;6867;50.998;4.250;2023-04-21T02:28:57;35.73;;;22.97;;
13592;SDS011;6867;50.998;4.250;2023-04-21T02:31:25;39.00;;;23.13;;
13592;SDS011;6867;50.998;4.250;2023-04-21T02:33:52;39.17;;;24.30;;
13592;SDS011;6867;50.998;4.250;2023-04-21T02:36:19;40.80;;;24.50;;
13592;SDS011;6867;50.998;4.250;2023-04-21T02:38:45;40.17;;;25.30;;
13592;SDS011;6867;50.998;4.250;2023-04-21T02:41:12;40.90;;;24.97;;
13592;SDS011;6867;50.998;4.250;2023-04-21T02:43:39;41.00;;;25.07;;
13592;SDS011;6867;50.998;4.250;2023-04-21T02:46:05;41.17;;;24.83;;
13592;SDS011;6867;50.998;4.250;2023-04-21T02:48:34;42.00;;;25.37;;
13592;SDS011;6867;50.998;4.250;2023-04-21T02:51:00;39.47;;;24.77;;
13592;SDS011;6867;50.998;4.250;2023-04-21T02:53:28;40.53;;;24.70;;
13592;SDS011;6867;50.998;4.250;2023-04-21T02:55:55;43.87;;;26.77;;
13592;SDS011;6867;50.998;4.250;2023-04-21T02:58:21;41.17;;;24.27;;
13592;SDS011;6867;50.998;4.250;2023-04-21T03:00:48;39.67;;;24.67;;
13592;SDS011;6867;50.998;4.250;2023-04-21T03:03:15;42.97;;;25.13;;
13592;SDS011;6867;50.998;4.250;2023-04-21T03:05:43;47.07;;;26.27;;
13592;SDS011;6867;50.998;4.250;2023-04-21T03:08:10;43.77;;;27.17;;
13592;SDS011;6867;50.998;4.250;2023-04-21T03:10:36;45.70;;;27.80;;
13592;SDS011;6867;50.998;4.250;2023-04-21T03:13:03;45.27;;;27.10;;
13592;SDS011;6867;50.998;4.250;2023-04-21T03:15:30;47.43;;;27.03;;
13592;SDS011;6867;50.998;4.250;2023-04-21T03:17:57;42.07;;;26.03;;
13592;SDS011;6867;50.998;4.250;2023-04-21T03:20:23;49.20;;;27.53;;
13592;SDS011;6867;50.998;4.250;2023-04-21T03:22:53;46.47;;;27.07;;
13592;SDS011;6867;50.998;4.250;2023-04-21T03:25:20;43.90;;;26.90;;
13592;SDS011;6867;50.998;4.250;2023-04-21T03:27:46;46.70;;;26.93;;
13592;SDS011;6867;50.998;4.250;2023-04-21T03:30:13;48.43;;;27.40;;
13592;SDS011;6867;50.998;4.250;2023-04-21T03:32:40;46.23;;;27.20;;
13592;SDS011;6867;50.998;4.250;2023-04-21T03:35:06;44.93;;;26.27;;
13592;SDS011;6867;50.998;4.250;2023-04-21T03:37:33;51.93;;;29.83;;
13592;SDS011;6867;50.998;4.250;2023-04-21T03:40:02;46.33;;;26.73;;
13592;SDS011;6867;50.998;4.250;2023-04-21T03:42:30;55.57;;;28.87;;
13592;SDS011;6867;50.998;4.250;2023-04-21T03:45:00;52.63;;;29.80;;
13592;SDS011;6867;50.998;4.250;2023-04-21T03:47:27;49.70;;;28.30;;
13592;SDS011;6867;50.998;4.250;2023-04-21T03:49:54;50.83;;;29.27;;
13592;SDS011;6867;50.998;4.250;2023-04-21T03:52:20;55.20;;;28.87;;
13592;SDS011;6867;50.998;4.250;2023-04-21T03:54:47;55.20;;;30.30;;
13592;SDS011;6867;50.998;4.250;2023-04-21T03:57:15;51.20;;;30.03;;
13592;SDS011;6867;50.998;4.250;2023-04-21T03:59:42;50.30;;;29.50;;
13592;SDS011;6867;50.998;4.250;2023-04-21T04:02:09;53.53;;;29.83;;
13592;SDS011;6867;50.998;4.250;2023-04-21T04:04:35;53.57;;;28.87;;
13592;SDS011;6867;50.998;4.250;2023-04-21T04:07:02;55.83;;;31.00;;
13592;SDS011;6867;50.998;4.250;2023-04-21T04:09:31;56.77;;;30.83;;
13592;SDS011;6867;50.998;4.250;2023-04-21T04:11:58;53.87;;;30.47;;
13592;SDS011;6867;50.998;4.250;2023-04-21T04:14:27;53.57;;;30.60;;
13592;SDS011;6867;50.998;4.250;2023-04-21T04:16:53;56.90;;;31.30;;
13592;SDS011;6867;50.998;4.250;2023-04-21T04:19:20;55.57;;;30.17;;
13592;SDS011;6867;50.998;4.250;2023-04-21T04:21:46;57.73;;;31.00;;
13592;SDS011;6867;50.998;4.250;2023-04-21T04:24:13;58.67;;;30.80;;
13592;SDS011;6867;50.998;4.250;2023-04-21T04:26:40;53.60;;;29.30;;
13592;SDS011;6867;50.998;4.250;2023-04-21T04:29:08;55.33;;;31.43;;
13592;SDS011;6867;50.998;4.250;2023-04-21T04:31:36;56.43;;;31.03;;
13592;SDS011;6867;50.998;4.250;2023-04-21T04:34:03;54.53;;;29.47;;
13592;SDS011;6867;50.998;4.250;2023-04-21T04:36:30;50.70;;;30.10;;
13592;SDS011;6867;50.998;4.250;2023-04-21T04:38:57;55.70;;;31.30;;
13592;SDS011;6867;50.998;4.250;2023-04-21T04:41:24;55.50;;;30.97;;
13592;SDS011;6867;50.998;4.250;2023-04-21T04:43:50;54.83;;;30.90;;
13592;SDS011;6867;50.998;4.250;2023-04-21T04:46:17;54.53;;;30.27;;
13592;SDS011;6867;50.998;4.250;2023-04-21T04:48:45;53.57;;;29.97;;
13592;SDS011;6867;50.998;4.250;2023-04-21T04:51:12;52.77;;;29.97;;
13592;SDS011;6867;50.998;4.250;2023-04-21T04:53:39;56.23;;;30.43;;
13592;SDS011;6867;50.998;4.250;2023-04-21T04:56:05;54.10;;;30.10;;
13592;SDS011;6867;50.998;4.250;2023-04-21T04:58:32;52.97;;;29.73;;
13592;SDS011;6867;50.998;4.250;2023-04-21T05:01:09;60.47;;;32.63;;
13592;SDS011;6867;50.998;4.250;2023-04-21T05:03:37;49.30;;;28.67;;
13592;SDS011;6867;50.998;4.250;2023-04-21T05:06:05;52.90;;;30.13;;
13592;SDS011;6867;50.998;4.250;2023-04-21T05:08:32;56.03;;;29.17;;
13592;SDS011;6867;50.998;4.250;2023-04-21T05:10:58;59.10;;;31.33;;
13592;SDS011;6867;50.998;4.250;2023-04-21T05:13:25;55.87;;;30.97;;
13592;SDS011;6867;50.998;4.250;2023-04-21T05:15:55;57.83;;;30.90;;
13592;SDS011;6867;50.998;4.250;2023-04-21T05:18:22;58.33;;;30.83;;
13592;SDS011;6867;50.998;4.250;2023-04-21T05:20:49;53.37;;;29.97;;
13592;SDS011;6867;50.998;4.250;2023-04-21T05:23:17;56.70;;;31.00;;
13592;SDS011;6867;50.998;4.250;2023-04-21T05:25:44;52.23;;;29.67;;
13592;SDS011;6867;50.998;4.250;2023-04-21T05:28:11;55.03;;;31.10;;
13592;SDS011;6867;50.998;4.250;2023-04-21T05:30:38;52.23;;;29.50;;
13592;SDS011;6867;50.998;4.250;2023-04-21T05:33:04;56.40;;;31.40;;
13592;SDS011;6867;50.998;4.250;2023-04-21T05:35:31;57.97;;;32.10;;
13592;SDS011;6867;50.998;4.250;2023-04-21T05:37:58;52.87;;;28.43;;
13592;SDS011;6867;50.998;4.250;2023-04-21T05:40:26;52.90;;;29.07;;
13592;SDS011;6867;50.998;4.250;2023-04-21T05:42:53;52.53;;;30.27;;
13592;SDS011;6867;50.998;4.250;2023-04-21T05:45:19;56.40;;;31.20;;
13592;SDS011;6867;50.998;4.250;2023-04-21T05:47:46;54.43;;;30.43;;
13592;SDS011;6867;50.998;4.250;2023-04-21T05:50:13;56.50;;;30.20;;
13592;SDS011;6867;50.998;4.250;2023-04-21T05:52:41;54.67;;;29.93;;
13592;SDS011;6867;50.998;4.250;2023-04-21T05:55:07;49.77;;;29.47;;
13592;SDS011;6867;50.998;4.250;2023-04-21T05:57:35;50.87;;;29.53;;
13592;SDS011;6867;50.998;4.250;2023-04-21T06:00:02;52.13;;;29.73;;
13592;SDS011;6867;50.998;4.250;2023-04-21T06:02:30;49.33;;;29.10;;
13592;SDS011;6867;50.998;4.250;2023-04-21T06:04:56;47.60;;;28.77;;
13592;SDS011;6867;50.998;4.250;2023-04-21T06:07:23;46.57;;;26.47;;
13592;SDS011;6867;50.998;4.250;2023-04-21T06:09:50;43.87;;;27.47;;
13592;SDS011;6867;50.998;4.250;2023-04-21T06:12:16;48.17;;;28.43;;
13592;SDS011;6867;50.998;4.250;2023-04-21T06:14:44;47.90;;;26.90;;
13592;SDS011;6867;50.998;4.250;2023-04-21T06:17:14;47.43;;;27.17;;
13592;SDS011;6867;50.998;4.250;2023-04-21T06:19:42;50.73;;;27.63;;
13592;SDS011;6867;50.998;4.250;2023-04-21T06:22:08;45.10;;;25.80;;
13592;SDS011;6867;50.998;4.250;2023-04-21T06:24:35;45.50;;;26.90;;
13592;SDS011;6867;50.998;4.250;2023-04-21T06:27:02;42.90;;;26.43;;
13592;SDS011;6867;50.998;4.250;2023-04-21T06:29:28;43.60;;;25.03;;
13592;SDS011;6867;50.998;4.250;2023-04-21T06:31:56;48.47;;;25.53;;
13592;SDS011;6867;50.998;4.250;2023-04-21T06:34:23;42.00;;;25.20;;
13592;SDS011;6867;50.998;4.250;2023-04-21T06:36:50;45.70;;;26.73;;
13592;SDS011;6867;50.998;4.250;2023-04-21T06:39:17;43.80;;;25.40;;
13592;SDS011;6867;50.998;4.250;2023-04-21T06:41:43;41.87;;;25.90;;
13592;SDS011;6867;50.998;4.250;2023-04-21T06:44:10;42.93;;;25.30;;
13592;SDS011;6867;50.998;4.250;2023-04-21T06:46:38;44.90;;;25.53;;
13592;SDS011;6867;50.998;4.250;2023-04-21T06:49:06;42.67;;;24.20;;
13592;SDS011;6867;50.998;4.250;2023-04-21T06:51:32;45.40;;;26.77;;
13592;SDS011;6867;50.998;4.250;2023-04-21T06:53:59;44.70;;;25.17;;
13592;SDS011;6867;50.998;4.250;2023-04-21T06:56:27;40.80;;;23.90;;
13592;SDS011;6867;50.998;4.250;2023-04-21T06:58:53;39.73;;;23.50;;
13592;SDS011;6867;50.998;4.250;2023-04-21T07:01:20;42.27;;;24.40;;
13592;SDS011;6867;50.998;4.250;2023-04-21T07:03:48;38.67;;;22.83;;
13592;SDS011;6867;50.998;4.250;2023-04-21T07:06:16;36.37;;;21.87;;
13592;SDS011;6867;50.998;4.250;2023-04-21T07:08:43;38.50;;;22.77;;
13592;SDS011;6867;50.998;4.250;2023-04-21T07:11:09;38.37;;;22.30;;
13592;SDS011;6867;50.998;4.250;2023-04-21T07:13:36;38.67;;;22.90;;
13592;SDS011;6867;50.998;4.250;2023-04-21T07:16:03;39.27;;;23.20;;
13592;SDS011;6867;50.998;4.250;2023-04-21T07:18:30;36.07;;;22.93;;
13592;SDS011;6867;50.998;4.250;2023-04-21T07:20:58;36.27;;;22.37;;
13592;SDS011;6867;50.998;4.250;2023-04-21T07:23:26;37.57;;;20.97;;
13592;SDS011;6867;50.998;4.250;2023-04-21T07:25:53;35.20;;;20.90;;
13592;SDS011;6867;50.998;4.250;2023-04-21T07:28:20;31.40;;;19.73;;
13592;SDS011;6867;50.998;4.250;2023-04-21T07:30:46;32.70;;;20.60;;
13592;SDS011;6867;50.998;4.250;2023-04-21T07:33:13;32.27;;;20.33;;
13592;SDS011;6867;50.998;4.250;2023-04-21T07:35:40;32.17;;;20.57;;
13592;SDS011;6867;50.998;4.250;2023-04-21T07:38:07;32.77;;;20.53;;
13592;SDS011;6867;50.998;4.250;2023-04-21T07:40:35;29.83;;;18.63;;
13592;SDS011;6867;50.998;4.250;2023-04-21T07:43:01;29.80;;;20.00;;
13592;SDS011;6867;50.998;4.250;2023-04-21T07:45:28;28.97;;;18.33;;
13592;SDS011;6867;50.998;4.250;2023-04-21T07:47:55;28.20;;;18.03;;
13592;SDS011;6867;50.998;4.250;2023-04-21T07:50:21;27.13;;;17.90;;
13592;SDS011;6867;50.998;4.250;2023-04-21T07:52:48;27.67;;;17.67;;
13592;SDS011;6867;50.998;4.250;2023-04-21T07:55:15;24.67;;;17.13;;
13592;SDS011;6867;50.998;4.250;2023-04-21T07:57:43;24.67;;;16.30;;
13592;SDS011;6867;50.998;4.250;2023-04-21T08:00:10;28.50;;;16.67;;
13592;SDS011;6867;50.998;4.250;2023-04-21T08:02:38;23.47;;;16.80;;
13592;SDS011;6867;50.998;4.250;2023-04-21T08:05:04;22.97;;;15.90;;
13592;SDS011;6867;50.998;4.250;2023-04-21T08:07:31;23.73;;;15.97;;
13592;SDS011;6867;50.998;4.250;2023-04-21T08:09:58;22.80;;;15.00;;
13592;SDS011;6867;50.998;4.250;2023-04-21T08:12:25;20.83;;;15.50;;
13592;SDS011;6867;50.998;4.250;2023-04-21T08:14:53;22.53;;;15.37;;
13592;SDS011;6867;50.998;4.250;2023-04-21T08:17:20;23.30;;;14.53;;
13592;SDS011;6867;50.998;4.250;2023-04-21T08:19:47;25.03;;;15.13;;
13592;SDS011;6867;50.998;4.250;2023-04-21T08:22:13;22.33;;;14.40;;
13592;SDS011;6867;50.998;4.250;2023-04-21T08:24:40;22.23;;;15.40;;
13592;SDS011;6867;50.998;4.250;2023-04-21T08:27:07;19.90;;;14.07;;
13592;SDS011;6867;50.998;4.250;2023-04-21T08:29:33;20.77;;;14.47;;
13592;SDS011;6867;50.998;4.250;2023-04-21T08:32:02;20.60;;;14.77;;
13592;SDS011;6867;50.998;4.250;2023-04-21T08:34:28;21.03;;;13.70;;
13592;SDS011;6867;50.998;4.250;2023-04-21T08:36:55;19.77;;;13.83;;
13592;SDS011;6867;50.998;4.250;2023-04-21T08:39:21;18.47;;;12.63;;
13592;SDS011;6867;50.998;4.250;2023-04-21T08:41:48;19.10;;;12.47;;
13592;SDS011;6867;50.998;4.250;2023-04-21T08:44:16;19.97;;;13.43;;
13592;SDS011;6867;50.998;4.250;2023-04-21T08:46:44;14.82;;;11.27;;
13592;SDS011;6867;50.998;4.250;2023-04-21T08:49:14;18.27;;;12.07;;
13592;SDS011;6867;50.998;4.250;2023-04-21T08:51:44;16.42;;;12.20;;
13592;SDS011;6867;50.998;4.250;2023-04-21T08:54:12;16.33;;;11.83;;
13592;SDS011;6867;50.998;4.250;2023-04-21T08:56:38;17.33;;;11.45;;
13592;SDS011;6867;50.998;4.250;2023-04-21T08:59:05;16.35;;;11.27;;
13592;SDS011;6867;50.998;4.250;2023-04-21T09:01:32;16.67;;;11.55;;
13592;SDS011;6867;50.998;4.250;2023-04-21T09:06:42;15.60;;;11.27;;
13592;SDS011;6867;50.998;4.250;2023-04-21T09:09:10;16.67;;;11.57;;
13592;SDS011;6867;50.998;4.250;2023-04-21T09:11:36;14.18;;;10.68;;
13592;SDS011;6867;50.998;4.250;2023-04-21T09:14:03;15.88;;;10.73;;
13592;SDS011;6867;50.998;4.250;2023-04-21T09:16:30;16.25;;;10.75;;
13592;SDS011;6867;50.998;4.250;2023-04-21T09:18:58;13.73;;;11.18;;
13592;SDS011;6867;50.998;4.250;2023-04-21T09:21:27;15.50;;;11.13;;
13592;SDS011;6867;50.998;4.250;2023-04-21T09:23:55;16.00;;;10.75;;
13592;SDS011;6867;50.998;4.250;2023-04-21T09:26:22;16.25;;;11.60;;
13592;SDS011;6867;50.998;4.250;2023-04-21T09:28:49;14.15;;;10.15;;
13592;SDS011;6867;50.998;4.250;2023-04-21T09:31:17;13.65;;;10.90;;
13592;SDS011;6867;50.998;4.250;2023-04-21T09:33:45;17.00;;;10.85;;
13592;SDS011;6867;50.998;4.250;2023-04-21T09:36:19;13.32;;;9.85;;
13592;SDS011;6867;50.998;4.250;2023-04-21T09:38:49;14.23;;;10.38;;
13592;SDS011;6867;50.998;4.250;2023-04-21T09:41:21;14.30;;;10.77;;
13592;SDS011;6867;50.998;4.250;2023-04-21T09:43:48;15.50;;;11.27;;
13592;SDS011;6867;50.998;4.250;2023-04-21T09:46:15;13.73;;;10.77;;
13592;SDS011;6867;50.998;4.250;2023-04-21T09:48:43;13.75;;;10.13;;
13592;SDS011;6867;50.998;4.250;2023-04-21T09:51:11;15.10;;;10.90;;
13592;SDS011;6867;50.998;4.250;2023-04-21T09:53:39;15.80;;;10.73;;
13592;SDS011;6867;50.998;4.250;2023-04-21T09:56:10;12.95;;;10.32;;
13592;SDS011;6867;50.998;4.250;2023-04-21T09:58:39;11.95;;;9.85;;
13592;SDS011;6867;50.998;4.250;2023-04-21T10:01:09;11.93;;;9.30;;
13592;SDS011;6867;50.998;4.250;2023-04-21T10:03:38;13.90;;;9.20;;
13592;SDS011;6867;50.998;4.250;2023-04-21T10:06:06;11.52;;;9.05;;
13592;SDS011;6867;50.998;4.250;2023-04-21T10:08:33;11.23;;;8.63;;
13592;SDS011;6867;50.998;4.250;2023-04-21T10:11:01;12.15;;;9.27;;
13592;SDS011;6867;50.998;4.250;2023-04-21T10:13:31;11.48;;;9.18;;
13592;SDS011;6867;50.998;4.250;2023-04-21T10:16:01;11.43;;;8.68;;
13592;SDS011;6867;50.998;4.250;2023-04-21T10:18:29;12.05;;;9.18;;
13592;SDS011;6867;50.998;4.250;2023-04-21T10:20:56;11.05;;;9.27;;
13592;SDS011;6867;50.998;4.250;2023-04-21T10:23:30;15.07;;;8.68;;
13592;SDS011;6867;50.998;4.250;2023-04-21T10:26:02;12.25;;;8.43;;
13592;SDS011;6867;50.998;4.250;2023-04-21T10:28:41;13.73;;;9.00;;
13592;SDS011;6867;50.998;4.250;2023-04-21T10:31:17;10.88;;;8.32;;
13592;SDS011;6867;50.998;4.250;2023-04-21T10:36:43;9.05;;;6.95;;
13592;SDS011;6867;50.998;4.250;2023-04-21T10:39:25;8.43;;;6.72;;
13592;SDS011;6867;50.998;4.250;2023-04-21T10:41:54;8.32;;;6.88;;
13592;SDS011;6867;50.998;4.250;2023-04-21T10:44:23;11.00;;;7.28;;
13592;SDS011;6867;50.998;4.250;2023-04-21T10:46:51;10.23;;;7.15;;
13592;SDS011;6867;50.998;4.250;2023-04-21T10:49:21;8.82;;;7.13;;
13592;SDS011;6867;50.998;4.250;2023-04-21T10:52:02;9.90;;;6.60;;
13592;SDS011;6867;50.998;4.250;2023-04-21T10:54:31;14.38;;;8.18;;
13592;SDS011;6867;50.998;4.250;2023-04-21T10:57:06;9.52;;;7.18;;
13592;SDS011;6867;50.998;4.250;2023-04-21T10:59:35;10.98;;;7.15;;
13592;SDS011;6867;50.998;4.250;2023-04-21T11:02:02;11.27;;;6.63;;
13592;SDS011;6867;50.998;4.250;2023-04-21T11:04:30;7.82;;;6.57;;
13592;SDS011;6867;50.998;4.250;2023-04-21T11:07:04;7.07;;;6.15;;
13592;SDS011;6867;50.998;4.250;2023-04-21T11:09:32;8.73;;;7.18;;
13592;SDS011;6867;50.998;4.250;2023-04-21T11:11:58;11.00;;;7.70;;
13592;SDS011;6867;50.998;4.250;2023-04-21T11:14:26;9.98;;;7.85;;
13592;SDS011;6867;50.998;4.250;2023-04-21T11:16:54;7.18;;;6.18;;
13592;SDS011;6867;50.998;4.250;2023-04-21T11:19:21;8.18;;;6.72;;
13592;SDS011;6867;50.998;4.250;2023-04-21T11:21:50;10.52;;;7.25;;
13592;SDS011;6867;50.998;4.250;2023-04-21T11:24:19;10.65;;;7.05;;
13592;SDS011;6867;50.998;4.250;2023-04-21T11:26:46;9.50;;;8.05;;
13592;SDS011;6867;50.998;4.250;2023-04-21T11:29:13;11.80;;;8.30;;
13592;SDS011;6867;50.998;4.250;2023-04-21T11:31:41;8.35;;;7.45;;
13592;SDS011;6867;50.998;4.250;2023-04-21T11:34:10;9.52;;;7.18;;
13592;SDS011;6867;50.998;4.250;2023-04-21T11:36:38;9.55;;;6.80;;
13592;SDS011;6867;50.998;4.250;2023-04-21T11:39:06;11.43;;;7.28;;
13592;SDS011;6867;50.998;4.250;2023-04-21T11:41:34;9.00;;;7.40;;
13592;SDS011;6867;50.998;4.250;2023-04-21T11:44:04;9.52;;;6.03;;
13592;SDS011;6867;50.998;4.250;2023-04-21T11:46:31;8.45;;;5.55;;
13592;SDS011;6867;50.998;4.250;2023-04-21T11:48:58;6.72;;;5.82;;
13592;SDS011;6867;50.998;4.250;2023-04-21T11:51:32;8.90;;;6.25;;
13592;SDS011;6867;50.998;4.250;2023-04-21T11:53:59;8.38;;;6.55;;
13592;SDS011;6867;50.998;4.250;2023-04-21T11:56:26;10.82;;;7.15;;
13592;SDS011;6867;50.998;4.250;2023-04-21T11:58:53;8.68;;;6.78;;
13592;SDS011;6867;50.998;4.250;2023-04-21T12:01:20;10.45;;;7.28;;
13592;SDS011;6867;50.998;4.250;2023-04-21T12:03:51;7.65;;;6.05;;
13592;SDS011;6867;50.998;4.250;2023-04-21T12:06:20;8.45;;;6.55;;
13592;SDS011;6867;50.998;4.250;2023-04-21T12:08:51;9.35;;;7.60;;
13592;SDS011;6867;50.998;4.250;2023-04-21T12:11:21;10.73;;;8.68;;
13592;SDS011;6867;50.998;4.250;2023-04-21T12:13:48;11.40;;;8.15;;
13592;SDS011;6867;50.998;4.250;2023-04-21T12:16:15;13.10;;;8.63;;
13592;SDS011;6867;50.998;4.250;2023-04-21T12:18:42;11.32;;;9.13;;
13592;SDS011;6867;50.998;4.250;2023-04-21T12:21:08;10.57;;;8.35;;
13592;SDS011;6867;50.998;4.250;2023-04-21T12:23:39;11.13;;;9.13;;
13592;SDS011;6867;50.998;4.250;2023-04-21T12:26:08;13.32;;;9.18;;
13592;SDS011;6867;50.998;4.250;2023-04-21T12:28:34;11.45;;;9.23;;
13592;SDS011;6867;50.998;4.250;2023-04-21T12:31:01;12.95;;;9.32;;
13592;SDS011;6867;50.998;4.250;2023-04-21T12:33:28;10.65;;;8.38;;
13592;SDS011;6867;50.998;4.250;2023-04-21T12:35:54;12.15;;;8.77;;
13592;SDS011;6867;50.998;4.250;2023-04-21T12:38:21;12.95;;;9.65;;
13592;SDS011;6867;50.998;4.250;2023-04-21T12:40:48;11.88;;;8.80;;
13592;SDS011;6867;50.998;4.250;2023-04-21T12:43:16;11.48;;;8.95;;
13592;SDS011;6867;50.998;4.250;2023-04-21T12:45:43;12.05;;;9.30;;
13592;SDS011;6867;50.998;4.250;2023-04-21T12:48:09;11.98;;;8.90;;
13592;SDS011;6867;50.998;4.250;2023-04-21T12:50:36;11.90;;;9.32;;
13592;SDS011;6867;50.998;4.250;2023-04-21T12:53:03;11.27;;;9.35;;
13592;SDS011;6867;50.998;4.250;2023-04-21T12:55:29;12.45;;;9.55;;
13592;SDS011;6867;50.998;4.250;2023-04-21T12:57:56;11.48;;;9.38;;
13592;SDS011;6867;50.998;4.250;2023-04-21T13:00:25;14.18;;;10.85;;
13592;SDS011;6867;50.998;4.250;2023-04-21T13:02:52;12.68;;;10.38;;
13592;SDS011;6867;50.998;4.250;2023-04-21T13:05:19;13.50;;;10.88;;
13592;SDS011;6867;50.998;4.250;2023-04-21T13:07:46;12.43;;;9.70;;
13592;SDS011;6867;50.998;4.250;2023-04-21T13:10:12;12.90;;;9.40;;
13592;SDS011;6867;50.998;4.250;2023-04-21T13:12:40;16.08;;;10.20;;
13592;SDS011;6867;50.998;4.250;2023-04-21T13:15:07;16.45;;;11.95;;
13592;SDS011;6867;50.998;4.250;2023-04-21T13:17:36;11.75;;;8.65;;
13592;SDS011;6867;50.998;4.250;2023-04-21T13:20:03;11.77;;;9.43;;
13592;SDS011;6867;50.998;4.250;2023-04-21T13:22:31;11.57;;;9.48;;
13592;SDS011;6867;50.998;4.250;2023-04-21T13:24:59;10.30;;;8.23;;
13592;SDS011;6867;50.998;4.250;2023-04-21T13:27:26;10.65;;;8.80;;
13592;SDS011;6867;50.998;4.250;2023-04-21T13:29:53;11.20;;;8.75;;
13592;SDS011;6867;50.998;4.250;2023-04-21T13:32:20;13.27;;;9.48;;
13592;SDS011;6867;50.998;4.250;2023-04-21T13:34:48;12.20;;;9.52;;
13592;SDS011;6867;50.998;4.250;2023-04-21T13:37:14;12.18;;;9.00;;
13592;SDS011;6867;50.998;4.250;2023-04-21T13:39:41;10.20;;;8.40;;
13592;SDS011;6867;50.998;4.250;2023-04-21T13:42:08;10.00;;;7.30;;
13592;SDS011;6867;50.998;4.250;2023-04-21T13:44:35;10.75;;;7.43;;
13592;SDS011;6867;50.998;4.250;2023-04-21T13:47:02;9.32;;;7.28;;
13592;SDS011;6867;50.998;4.250;2023-04-21T13:49:28;8.70;;;7.00;;
13592;SDS011;6867;50.998;4.250;2023-04-21T13:51:57;9.18;;;6.05;;
13592;SDS011;6867;50.998;4.250;2023-04-21T13:54:23;6.35;;;5.50;;
13592;SDS011;6867;50.998;4.250;2023-04-21T13:56:50;6.68;;;5.63;;
13592;SDS011;6867;50.998;4.250;2023-04-21T13:59:17;7.70;;;5.47;;
13592;SDS011;6867;50.998;4.250;2023-04-21T14:01:45;6.18;;;5.45;;
13592;SDS011;6867;50.998;4.250;2023-04-21T14:04:11;7.75;;;5.70;;
13592;SDS011;6867;50.998;4.250;2023-04-21T14:06:38;5.85;;;5.20;;
13592;SDS011;6867;50.998;4.250;2023-04-21T14:09:06;5.85;;;4.63;;
13592;SDS011;6867;50.998;4.250;2023-04-21T14:11:36;5.57;;;4.45;;
13592;SDS011;6867;50.998;4.250;2023-04-21T14:14:03;5.90;;;4.35;;
13592;SDS011;6867;50.998;4.250;2023-04-21T14:16:30;5.07;;;4.47;;
13592;SDS011;6867;50.998;4.250;2023-04-21T14:18:57;6.10;;;4.25;;
13592;SDS011;6867;50.998;4.250;2023-04-21T14:21:24;5.88;;;4.25;;
13592;SDS011;6867;50.998;4.250;2023-04-21T14:23:50;4.80;;;3.70;;
13592;SDS011;6867;50.998;4.250;2023-04-21T14:26:18;3.85;;;3.40;;
13592;SDS011;6867;50.998;4.250;2023-04-21T14:28:45;4.35;;;3.50;;
13592;SDS011;6867;50.998;4.250;2023-04-21T14:31:12;8.32;;;3.40;;
13592;SDS011;6867;50.998;4.250;2023-04-21T14:33:39;3.25;;;2.95;;
13592;SDS011;6867;50.998;4.250;2023-04-21T14:36:05;3.58;;;3.13;;
13592;SDS011;6867;50.998;4.250;2023-04-21T14:38:32;3.67;;;3.15;;
13592;SDS011;6867;50.998;4.250;2023-04-21T14:40:59;5.28;;;3.42;;
13592;SDS011;6867;50.998;4.250;2023-04-21T14:43:27;5.85;;;3.80;;
13592;SDS011;6867;50.998;4.250;2023-04-21T14:45:54;5.30;;;3.88;;
13592;SDS011;6867;50.998;4.250;2023-04-21T14:48:21;5.20;;;4.22;;